Time;durP1;ratioP1;P1;durP2;ratioP2;P2;SDS_P1;SDS_P2;PMS_P1;PMS_P2;Temp;Humidity;BMP_temperature;BMP_pressure;BME280_temperature;BME280_humidity;BME280_pressure;Samples;Min_cycle;Max_cycle;Signal;HPM_P1;HPM_P2
2021/05/25 00:00:26;;;;;;;0.00;0.00;;;15.20;89.60;;;;;;4176923;28;20078;-53
2021/05/25 00:02:49;;;;;;;0.13;0.08;;;15.20;90.20;;;;;;4176975;28;20039;-54
2021/05/25 00:05:13;;;;;;;0.00;0.00;;;15.20;89.60;;;;;;4175555;28;20048;-50
2021/05/25 00:07:35;;;;;;;0.00;0.00;;;15.20;89.60;;;;;;4160559;28;20085;-52
2021/05/25 00:09:57;;;;;;;0.00;0.00;;;15.20;89.70;;;;;;4166749;28;20475;-48
2021/05/25 00:12:19;;;;;;;0.00;0.00;;;15.10;89.60;;;;;;4176758;28;20786;-49
2021/05/25 00:14:41;;;;;;;0.68;0.68;;;15.20;89.80;;;;;;4176755;28;20045;-51
2021/05/25 00:17:02;;;;;;;;;;;15.10;89.70;;;;;;4162128;28;20056;-48
2021/05/25 00:19:25;;;;;;;0.00;0.00;;;15.10;89.70;;;;;;4160309;28;20379;-50
2021/05/25 00:21:47;;;;;;;0.03;0.03;;;15.10;89.70;;;;;;4160214;28;20517;-50
2021/05/25 00:24:09;;;;;;;0.00;0.00;;;15.10;89.70;;;;;;4160502;28;20132;-47
2021/05/25 00:26:31;;;;;;;0.00;0.00;;;15.10;89.70;;;;;;4160343;28;20049;-48
2021/05/25 00:28:52;;;;;;;0.00;0.00;;;15.10;89.90;;;;;;4171592;28;20044;-48
2021/05/25 00:31:14;;;;;;;0.00;0.00;;;15.10;89.90;;;;;;4160150;28;20499;-48
2021/05/25 00:33:36;;;;;;;0.13;0.13;;;15.10;90.00;;;;;;4160094;28;20045;-49
2021/05/25 00:35:58;;;;;;;0.00;0.00;;;15.10;90.00;;;;;;4159752;28;20053;-54
2021/05/25 00:38:20;;;;;;;0.00;0.00;;;15.10;90.00;;;;;;4160100;28;20096;-52
2021/05/25 00:40:42;;;;;;;0.00;0.00;;;15.00;90.00;;;;;;4168441;28;20070;-49
2021/05/25 00:43:03;;;;;;;0.00;0.00;;;15.00;90.00;;;;;;4175591;28;20067;-49
2021/05/25 00:45:24;;;;;;;0.70;0.43;;;15.10;90.00;;;;;;4176303;28;20495;-46
2021/05/25 00:47:47;;;;;;;0.00;0.00;;;15.00;90.00;;;;;;4175986;28;20103;-51
2021/05/25 00:50:12;;;;;;;0.10;0.10;;;15.00;90.00;;;;;;4173632;28;20476;-46
2021/05/25 00:52:36;;;;;;;0.00;0.00;;;15.00;90.00;;;;;;4176285;28;20051;-48
2021/05/25 00:54:58;;;;;;;0.00;0.00;;;15.00;90.00;;;;;;4176075;28;20045;-48
2021/05/25 00:57:20;;;;;;;0.00;0.00;;;15.00;90.00;;;;;;4176215;28;21212;-49
2021/05/25 00:59:41;;;;;;;0.00;0.00;;;15.00;90.00;;;;;;4165083;28;20132;-46
2021/05/25 01:02:02;;;;;;;;;;;15.00;90.00;;;;;;4159914;28;20132;-50
2021/05/25 01:04:24;;;;;;;0.00;0.00;;;15.00;90.00;;;;;;4159804;28;20291;-49
2021/05/25 01:06:45;;;;;;;0.30;0.30;;;15.00;90.00;;;;;;4159633;28;20156;-47
2021/05/25 01:09:09;;;;;;;0.00;0.00;;;15.00;90.00;;;;;;4165130;28;20496;-49
2021/05/25 01:11:34;;;;;;;0.20;0.20;;;14.90;90.00;;;;;;4164584;28;20108;-47
2021/05/25 01:13:58;;;;;;;0.00;0.00;;;14.90;90.10;;;;;;4162816;28;20104;-46
2021/05/25 01:16:21;;;;;;;0.00;0.00;;;14.90;90.10;;;;;;4174311;28;20095;-49
2021/05/25 01:18:44;;;;;;;0.00;0.00;;;14.90;90.10;;;;;;4171395;28;20099;-48
2021/05/25 01:21:07;;;;;;;0.20;0.20;;;15.00;90.10;;;;;;4175807;28;20569;-50
2021/05/25 01:23:32;;;;;;;0.00;0.00;;;14.90;90.10;;;;;;4174652;28;20041;-50
2021/05/25 01:25:53;;;;;;;0.13;0.13;;;14.90;90.10;;;;;;4175826;28;20061;-47
2021/05/25 01:28:16;;;;;;;0.00;0.00;;;14.90;90.10;;;;;;4172225;28;20051;-50
2021/05/25 01:30:40;;;;;;;0.00;0.00;;;14.90;90.10;;;;;;4145975;28;20519;-49
2021/05/25 01:33:04;;;;;;;0.00;0.00;;;14.90;90.10;;;;;;4167312;28;20099;-51
2021/05/25 01:35:27;;;;;;;0.00;0.00;;;14.90;90.10;;;;;;4159066;28;20049;-47
2021/05/25 01:37:49;;;;;;;0.00;0.00;;;14.90;90.10;;;;;;4159419;28;20048;-47
2021/05/25 01:40:13;;;;;;;0.00;0.00;;;14.90;90.10;;;;;;4158980;28;20049;-47
2021/05/25 01:42:36;;;;;;;0.00;0.00;;;14.90;90.10;;;;;;4158945;28;20111;-47
2021/05/25 01:44:58;;;;;;;0.00;0.00;;;14.90;90.20;;;;;;4144097;28;20128;-49
2021/05/25 01:47:20;;;;;;;0.00;0.00;;;14.90;90.50;;;;;;4158402;28;20144;-47
2021/05/25 01:49:41;;;;;;;;;;;14.90;90.10;;;;;;4160836;28;20588;-48
2021/05/25 01:52:02;;;;;;;0.00;0.00;;;14.90;90.20;;;;;;4158882;28;20020;-48
2021/05/25 01:54:24;;;;;;;0.00;0.00;;;14.90;90.30;;;;;;4158502;28;20049;-51
2021/05/25 01:56:47;;;;;;;0.00;0.00;;;14.90;90.20;;;;;;4158859;28;20069;-48
2021/05/25 01:59:08;;;;;;;0.00;0.00;;;14.90;90.20;;;;;;4160961;28;20054;-48
2021/05/25 02:01:30;;;;;;;0.00;0.00;;;14.90;90.20;;;;;;4158687;28;20053;-51
2021/05/25 02:03:52;;;;;;;0.00;0.00;;;14.90;90.20;;;;;;4157349;28;20099;-49
2021/05/25 02:06:13;;;;;;;0.00;0.00;;;14.90;90.20;;;;;;4158652;28;20553;-51
2021/05/25 02:08:36;;;;;;;0.00;0.00;;;14.90;90.20;;;;;;4158633;28;20167;-50
2021/05/25 02:11:00;;;;;;;0.00;0.00;;;14.90;90.60;;;;;;4160507;28;20049;-48
2021/05/25 02:13:25;;;;;;;0.00;0.00;;;14.90;90.20;;;;;;4174801;28;20127;-48
2021/05/25 02:15:49;;;;;;;0.08;0.08;;;14.90;90.20;;;;;;4174993;28;20048;-50
2021/05/25 02:18:13;;;;;;;0.00;0.00;;;14.90;90.20;;;;;;4159224;28;20061;-51
2021/05/25 02:20:35;;;;;;;0.00;0.00;;;14.90;90.20;;;;;;4174991;28;20552;-47
2021/05/25 02:22:57;;;;;;;0.00;0.00;;;14.90;90.20;;;;;;4174351;28;20090;-49
2021/05/25 02:25:18;;;;;;;0.05;0.05;;;14.90;90.20;;;;;;4174798;28;20111;-49
2021/05/25 02:27:40;;;;;;;0.00;0.00;;;14.90;90.20;;;;;;4158364;28;20108;-48
2021/05/25 02:30:03;;;;;;;0.00;0.00;;;14.90;90.20;;;;;;4174162;28;20056;-53
2021/05/25 02:32:25;;;;;;;0.00;0.00;;;14.90;90.20;;;;;;4174709;28;20145;-48
2021/05/25 02:34:46;;;;;;;0.00;0.00;;;14.90;90.20;;;;;;4164437;28;21705;-49
2021/05/25 02:37:08;;;;;;;0.00;0.00;;;14.90;90.30;;;;;;4174261;28;20071;-51
2021/05/25 02:39:29;;;;;;;0.00;0.00;;;14.90;90.30;;;;;;4174604;28;20492;-50
2021/05/25 02:41:51;;;;;;;0.00;0.00;;;14.90;90.20;;;;;;4160872;28;20060;-47
2021/05/25 02:44:13;;;;;;;;;;;14.90;90.20;;;;;;4165665;28;20415;-47
2021/05/25 02:46:35;;;;;;;0.00;0.00;;;14.90;90.30;;;;;;4174737;28;20011;-47
2021/05/25 02:48:57;;;;;;;0.00;0.00;;;14.90;90.30;;;;;;4173533;28;20140;-50
2021/05/25 02:51:19;;;;;;;0.00;0.00;;;14.80;90.30;;;;;;4173287;28;20515;-49
2021/05/25 02:53:41;;;;;;;0.00;0.00;;;14.80;90.30;;;;;;4174712;28;20415;-48
2021/05/25 02:56:03;;;;;;;0.00;0.00;;;14.80;90.30;;;;;;4174566;28;20045;-51
2021/05/25 02:58:25;;;;;;;0.00;0.00;;;14.80;90.30;;;;;;4171537;28;20060;-52
2021/05/25 03:00:48;;;;;;;0.00;0.00;;;14.80;90.30;;;;;;4158068;28;20132;-52
2021/05/25 03:03:11;;;;;;;0.00;0.00;;;14.90;90.30;;;;;;4156636;28;20065;-51
2021/05/25 03:05:33;;;;;;;0.00;0.00;;;14.80;90.30;;;;;;4157946;28;20049;-51
2021/05/25 03:07:57;;;;;;;0.00;0.00;;;14.80;90.30;;;;;;4161540;28;20045;-50
2021/05/25 03:10:21;;;;;;;0.05;0.05;;;14.80;90.30;;;;;;4165290;28;20091;-51
2021/05/25 03:12:44;;;;;;;0.00;0.00;;;14.80;90.30;;;;;;4177691;28;20060;-46
2021/05/25 03:15:08;;;;;;;0.20;0.20;;;14.80;90.20;;;;;;4165707;28;20049;-51
2021/05/25 03:17:30;;;;;;;0.00;0.00;;;14.80;90.20;;;;;;4161169;28;20504;-48
2021/05/25 03:19:53;;;;;;;0.00;0.00;;;14.80;90.20;;;;;;4158207;28;20151;-48
2021/05/25 03:22:16;;;;;;;0.00;0.00;;;14.80;90.20;;;;;;4160963;28;20492;-52
2021/05/25 03:24:37;;;;;;;0.00;0.00;;;14.80;90.20;;;;;;4177699;28;20071;-49
2021/05/25 03:26:59;;;;;;;0.10;0.10;;;14.80;90.20;;;;;;4177672;28;20060;-48
2021/05/25 03:29:21;;;;;;;0.00;0.00;;;14.80;90.20;;;;;;4177380;28;20114;-52
2021/05/25 03:31:43;;;;;;;0.00;0.00;;;14.80;90.20;;;;;;4176060;28;20052;-50
2021/05/25 03:34:05;;;;;;;0.00;0.00;;;14.80;90.20;;;;;;4175528;28;20887;-52
2021/05/25 03:36:28;;;;;;;0.00;0.00;;;14.80;90.20;;;;;;4175926;28;20053;-47
2021/05/25 03:38:49;;;;;;;0.00;0.00;;;14.70;90.20;;;;;;4177633;28;20060;-49
2021/05/25 03:41:11;;;;;;;0.00;0.00;;;14.80;90.20;;;;;;4165365;28;20045;-48
2021/05/25 03:43:33;;;;;;;0.10;0.10;;;14.80;90.30;;;;;;4174385;28;20098;-48
2021/05/25 03:45:54;;;;;;;0.00;0.00;;;14.80;90.20;;;;;;4177071;28;20044;-49
2021/05/25 03:48:17;;;;;;;0.00;0.00;;;14.70;90.20;;;;;;4171837;28;20053;-51
2021/05/25 03:50:39;;;;;;;0.00;0.00;;;14.80;90.30;;;;;;4160416;28;20052;-50
2021/05/25 03:53:01;;;;;;;0.00;0.00;;;14.80;90.30;;;;;;4160614;28;20507;-47
2021/05/25 03:55:33;;;;;;;0.10;0.10;;;14.80;90.30;;;;;;4160378;28;20136;-47
2021/05/25 04:00:34;;;;;;;0.00;0.00;;;14.70;90.20;;;;;;4158749;28;20174;-50
2021/05/25 04:02:55;;;;;;;0.05;0.05;;;14.70;90.30;;;;;;4160382;28;20056;-48
2021/05/25 04:05:17;;;;;;;0.00;0.00;;;14.70;90.30;;;;;;4160097;28;20053;-48
2021/05/25 04:07:38;;;;;;;0.00;0.00;;;14.70;90.30;;;;;;4160442;28;20767;-46
2021/05/25 04:10:01;;;;;;;0.82;0.82;;;14.70;90.30;;;;;;4160685;28;20065;-50
2021/05/25 04:12:22;;;;;;;0.03;0.03;;;14.70;90.30;;;;;;4165659;28;20110;-50
2021/05/25 04:14:44;;;;;;;0.20;0.20;;;14.80;90.30;;;;;;4176510;28;20491;-47
2021/05/25 04:17:06;;;;;;;0.00;0.00;;;14.70;90.30;;;;;;4176526;28;20051;-49
2021/05/25 04:19:28;;;;;;;0.00;0.00;;;14.70;90.30;;;;;;4174555;28;20045;-49
2021/05/25 04:21:50;;;;;;;0.00;0.00;;;14.80;90.30;;;;;;4176625;28;20102;-48
2021/05/25 04:24:11;;;;;;;0.00;0.00;;;14.70;90.20;;;;;;4176782;28;20068;-47
2021/05/25 04:26:34;;;;;;;0.43;0.43;;;14.70;90.20;;;;;;4176769;28;20049;-46
2021/05/25 04:28:56;;;;;;;0.25;0.25;;;14.70;90.20;;;;;;4165465;28;20125;-51
2021/05/25 04:31:17;;;;;;;;;;;14.70;90.20;;;;;;4143968;28;20161;-46
2021/05/25 04:33:38;;;;;;;0.00;0.00;;;14.70;90.30;;;;;;4160274;28;19932;-48
2021/05/25 04:36:01;;;;;;;0.05;0.05;;;14.70;90.30;;;;;;4159830;28;20065;-48
2021/05/25 04:38:22;;;;;;;0.00;0.00;;;14.70;90.30;;;;;;4159824;28;20088;-51
2021/05/25 04:40:45;;;;;;;;;;;14.70;90.30;;;;;;4165713;28;20487;-53
2021/05/25 04:43:08;;;;;;;0.00;0.00;;;14.70;90.30;;;;;;4175986;28;20006;-47
2021/05/25 04:45:30;;;;;;;0.00;0.00;;;14.70;90.30;;;;;;4176497;28;20053;-51
2021/05/25 04:47:51;;;;;;;0.00;0.00;;;14.70;90.30;;;;;;4173271;28;20106;-46
2021/05/25 04:50:15;;;;;;;0.00;0.00;;;14.70;90.30;;;;;;4159885;28;20060;-50
2021/05/25 04:52:37;;;;;;;0.00;0.00;;;14.70;90.30;;;;;;4168914;28;20202;-49
2021/05/25 04:54:59;;;;;;;0.00;0.00;;;14.70;90.30;;;;;;4175960;28;20484;-48
2021/05/25 04:57:22;;;;;;;0.00;0.00;;;14.70;90.30;;;;;;4175927;28;20068;-50
2021/05/25 04:59:45;;;;;;;0.00;0.00;;;14.70;90.30;;;;;;4159565;28;20053;-49
2021/05/25 05:02:06;;;;;;;0.00;0.00;;;14.70;90.30;;;;;;4159365;28;20053;-48
2021/05/25 05:04:27;;;;;;;0.00;0.00;;;14.70;90.30;;;;;;4175805;28;20041;-46
2021/05/25 05:06:49;;;;;;;;;;;14.70;90.30;;;;;;4176411;28;20049;-49
2021/05/25 05:09:10;;;;;;;0.00;0.00;;;14.60;90.30;;;;;;4175725;28;19924;-47
2021/05/25 05:11:32;;;;;;;0.00;0.00;;;14.60;90.30;;;;;;4158539;28;20092;-49
2021/05/25 05:13:53;;;;;;;0.15;0.15;;;14.70;90.40;;;;;;4159567;28;20049;-51
2021/05/25 05:16:16;;;;;;;0.00;0.00;;;14.60;90.50;;;;;;4159309;28;20136;-46
2021/05/25 05:18:38;;;;;;;0.00;0.00;;;14.70;90.50;;;;;;4168881;28;20045;-52
2021/05/25 05:20:59;;;;;;;0.00;0.00;;;14.70;90.50;;;;;;4173208;28;20045;-48
2021/05/25 05:23:21;;;;;;;0.00;0.00;;;14.60;90.40;;;;;;4158825;28;20077;-47
2021/05/25 05:25:43;;;;;;;0.00;0.00;;;14.70;90.60;;;;;;4157888;28;20050;-52
2021/05/25 05:28:05;;;;;;;1.30;1.20;;;14.70;90.90;;;;;;4158776;28;20140;-49
2021/05/25 05:30:27;;;;;;;0.00;0.00;;;14.70;90.90;;;;;;4158014;28;20438;-49
2021/05/25 05:32:49;;;;;;;;;;;14.80;90.80;;;;;;4163335;28;20053;-51
2021/05/25 05:35:11;;;;;;;0.10;0.10;;;14.80;90.60;;;;;;4170144;28;19925;-47
2021/05/25 05:37:33;;;;;;;0.00;0.00;;;14.70;90.50;;;;;;4171832;28;20404;-49
2021/05/25 05:39:55;;;;;;;0.00;0.00;;;14.70;90.50;;;;;;4175389;28;20056;-48
2021/05/25 05:42:17;;;;;;;0.00;0.00;;;14.70;90.40;;;;;;4174117;28;20415;-51
2021/05/25 05:44:38;;;;;;;0.00;0.00;;;14.70;90.40;;;;;;4174799;28;20064;-49
2021/05/25 05:47:00;;;;;;;0.00;0.00;;;14.70;90.40;;;;;;4175268;28;20056;-51
2021/05/25 05:49:23;;;;;;;0.00;0.00;;;14.70;90.40;;;;;;4159303;28;20099;-49
2021/05/25 05:51:44;;;;;;;0.10;0.10;;;14.70;90.40;;;;;;4162296;28;20037;-50
2021/05/25 05:54:07;;;;;;;0.00;0.00;;;14.70;90.40;;;;;;4159759;28;20049;-47
2021/05/25 05:56:29;;;;;;;0.00;0.00;;;14.70;90.40;;;;;;4162598;28;20041;-53
2021/05/25 05:58:51;;;;;;;0.00;0.00;;;14.70;90.40;;;;;;4160529;28;20045;-53
2021/05/25 06:01:13;;;;;;;0.00;0.00;;;14.70;90.30;;;;;;4175235;28;20056;-47
2021/05/25 06:03:34;;;;;;;0.00;0.00;;;14.70;90.30;;;;;;4171798;28;20041;-49
2021/05/25 06:05:56;;;;;;;0.05;0.05;;;14.70;90.30;;;;;;4158691;28;20115;-46
2021/05/25 06:08:18;;;;;;;0.00;0.00;;;14.60;90.30;;;;;;4159641;28;20099;-51
2021/05/25 06:10:44;;;;;;;0.00;0.00;;;14.70;90.30;;;;;;4158492;28;20046;-47
2021/05/25 06:13:06;;;;;;;0.00;0.00;;;14.60;90.30;;;;;;4158678;28;20124;-47
2021/05/25 06:15:27;;;;;;;0.00;0.00;;;14.60;90.30;;;;;;4159689;28;20053;-48
2021/05/25 06:17:49;;;;;;;0.00;0.00;;;14.60;90.20;;;;;;4174581;28;20045;-49
2021/05/25 06:20:12;;;;;;;0.15;0.08;;;14.60;90.20;;;;;;4174336;28;20418;-50
2021/05/25 06:22:35;;;;;;;0.00;0.00;;;14.60;90.30;;;;;;4140389;28;20049;-49
2021/05/25 06:24:57;;;;;;;0.00;0.00;;;14.60;90.20;;;;;;4174088;28;20055;-51
2021/05/25 06:27:19;;;;;;;0.00;0.00;;;14.60;90.30;;;;;;4164188;28;20499;-50
2021/05/25 06:29:41;;;;;;;0.00;0.00;;;14.60;90.30;;;;;;4173209;28;20499;-47
2021/05/25 06:32:02;;;;;;;;;;;14.60;90.20;;;;;;4174866;28;20045;-45
2021/05/25 06:34:24;;;;;;;0.00;0.00;;;14.60;90.30;;;;;;4144708;28;19929;-47
2021/05/25 06:36:46;;;;;;;0.15;0.15;;;14.60;90.30;;;;;;4157527;28;20083;-47
2021/05/25 06:39:08;;;;;;;0.00;0.00;;;14.60;90.30;;;;;;4164020;28;20110;-51
2021/05/25 06:41:30;;;;;;;0.03;0.03;;;14.70;90.30;;;;;;4174092;28;20049;-49
2021/05/25 06:43:51;;;;;;;0.10;0.10;;;14.60;90.30;;;;;;4174211;28;20075;-50
2021/05/25 06:46:13;;;;;;;0.28;0.28;;;14.60;90.50;;;;;;4174413;28;20059;-49
2021/05/25 06:48:37;;;;;;;0.00;0.00;;;14.70;90.50;;;;;;4174301;28;20052;-47
2021/05/25 06:51:00;;;;;;;0.00;0.00;;;14.60;90.40;;;;;;4173989;28;20083;-49
2021/05/25 06:53:22;;;;;;;0.00;0.00;;;14.70;90.40;;;;;;4174765;28;20056;-49
2021/05/25 06:55:45;;;;;;;0.00;0.00;;;14.70;90.60;;;;;;4173448;28;20513;-51
2021/05/25 06:58:07;;;;;;;0.00;0.00;;;14.70;90.40;;;;;;4174451;28;20132;-48
2021/05/25 07:00:29;;;;;;;0.00;0.00;;;14.70;90.40;;;;;;4174606;28;20053;-48
2021/05/25 07:02:51;;;;;;;0.00;0.00;;;14.70;90.30;;;;;;4174379;28;20474;-51
2021/05/25 07:05:13;;;;;;;0.00;0.00;;;14.70;90.40;;;;;;4171519;28;20083;-50
2021/05/25 07:07:35;;;;;;;0.00;0.00;;;14.70;90.30;;;;;;4158023;28;20045;-46
2021/05/25 07:09:57;;;;;;;0.00;0.00;;;14.70;90.30;;;;;;4164875;28;20519;-46
2021/05/25 07:12:20;;;;;;;0.30;0.30;;;14.70;90.30;;;;;;4174258;28;20530;-49
2021/05/25 07:14:41;;;;;;;0.00;0.00;;;14.70;90.20;;;;;;4174564;28;21595;-49
2021/05/25 07:17:03;;;;;;;0.00;0.00;;;14.70;90.20;;;;;;4174858;28;20060;-49
2021/05/25 07:19:26;;;;;;;0.00;0.00;;;14.80;90.50;;;;;;4174773;28;20068;-48
2021/05/25 07:21:49;;;;;;;0.00;0.00;;;14.80;90.10;;;;;;4174244;28;20051;-47
2021/05/25 07:24:11;;;;;;;0.00;0.00;;;14.80;90.00;;;;;;4174561;28;20052;-47
2021/05/25 07:26:33;;;;;;;0.35;0.35;;;14.80;90.00;;;;;;4159102;28;20562;-48
2021/05/25 07:28:55;;;;;;;0.00;0.00;;;14.80;90.00;;;;;;4157838;28;20041;-47
2021/05/25 07:31:18;;;;;;;0.00;0.00;;;14.90;89.90;;;;;;4158010;28;20492;-49
2021/05/25 07:33:40;;;;;;;0.28;0.28;;;14.90;89.90;;;;;;4157801;28;20072;-50
2021/05/25 07:36:01;;;;;;;0.00;0.00;;;14.90;89.80;;;;;;4158012;28;20071;-46
2021/05/25 07:38:23;;;;;;;0.00;0.00;;;14.90;89.60;;;;;;4157754;28;20053;-49
2021/05/25 07:40:45;;;;;;;0.00;0.00;;;14.90;89.60;;;;;;4157582;28;20053;-49
2021/05/25 07:43:07;;;;;;;0.00;0.00;;;15.00;89.40;;;;;;4157756;28;20049;-48
2021/05/25 07:45:29;;;;;;;0.20;0.20;;;15.00;89.20;;;;;;4157954;28;20081;-46
2021/05/25 07:47:51;;;;;;;0.00;0.00;;;15.10;89.00;;;;;;4158312;28;20065;-47
2021/05/25 07:50:14;;;;;;;0.00;0.00;;;15.10;88.80;;;;;;4155341;28;20107;-48
2021/05/25 07:52:36;;;;;;;0.00;0.00;;;15.20;88.50;;;;;;4173425;28;20052;-48
2021/05/25 07:54:59;;;;;;;0.00;0.00;;;15.10;88.10;;;;;;4175201;28;20049;-47
2021/05/25 07:57:20;;;;;;;0.32;0.32;;;15.20;88.10;;;;;;4164006;28;20520;-50
2021/05/25 07:59:42;;;;;;;;;;;15.10;88.10;;;;;;4166958;28;20403;-46
2021/05/25 08:02:04;;;;;;;1.98;1.38;;;15.10;88.20;;;;;;4176749;28;19920;-50
2021/05/25 08:04:26;;;;;;;0.10;0.10;;;15.10;88.20;;;;;;4176269;28;20045;-47
2021/05/25 08:06:49;;;;;;;0.00;0.00;;;15.10;88.20;;;;;;4177078;28;20064;-46
2021/05/25 08:09:11;;;;;;;0.00;0.00;;;15.10;88.10;;;;;;4176200;28;20053;-44
2021/05/25 08:11:33;;;;;;;0.03;0.03;;;15.20;88.20;;;;;;4176496;28;20049;-48
2021/05/25 08:13:55;;;;;;;0.03;0.03;;;15.20;89.20;;;;;;4176832;28;20049;-46
2021/05/25 08:16:19;;;;;;;0.10;0.10;;;15.30;88.90;;;;;;4173261;28;20064;-48
2021/05/25 08:18:52;;;;;;;0.40;0.40;;;15.30;87.80;;;;;;4175517;28;20495;-47
2021/05/25 08:21:14;;;;;;;0.10;0.10;;;15.40;87.00;;;;;;4160092;28;20072;-45
2021/05/25 08:23:36;;;;;;;0.00;0.00;;;15.40;86.10;;;;;;4143419;28;20137;-47
2021/05/25 08:25:57;;;;;;;0.00;0.00;;;15.40;85.60;;;;;;4173793;28;20132;-48
2021/05/25 08:28:19;;;;;;;0.25;0.25;;;15.50;86.40;;;;;;4175910;28;20041;-45
2021/05/25 08:30:42;;;;;;;0.00;0.00;;;15.50;84.20;;;;;;4158301;28;20503;-48
2021/05/25 08:33:05;;;;;;;0.00;0.00;;;15.50;83.30;;;;;;4151665;28;20099;-48
2021/05/25 08:35:35;;;;;;;1.65;0.63;;;15.50;83.20;;;;;;4176579;28;20056;-49
2021/05/25 08:37:59;;;;;;;5.28;2.47;;;15.50;83.20;;;;;;4175981;28;20492;-45
2021/05/25 08:40:21;;;;;;;0.68;0.68;;;15.40;83.50;;;;;;4175765;28;20037;-45
2021/05/25 08:42:42;;;;;;;0.00;0.00;;;15.40;83.60;;;;;;4176452;28;20499;-46
2021/05/25 08:45:05;;;;;;;0.10;0.10;;;15.40;83.80;;;;;;4167513;28;20522;-49
2021/05/25 08:47:29;;;;;;;0.00;0.00;;;15.30;83.90;;;;;;4167251;28;20045;-46
2021/05/25 08:49:53;;;;;;;0.55;0.55;;;15.30;84.00;;;;;;4175794;28;20143;-49
2021/05/25 08:52:17;;;;;;;0.00;0.00;;;15.30;84.00;;;;;;4176504;28;20041;-46
2021/05/25 08:54:42;;;;;;;0.00;0.00;;;15.20;84.00;;;;;;4166323;28;21567;-44
2021/05/25 08:57:03;;;;;;;0.20;0.20;;;15.20;84.40;;;;;;4173673;28;20061;-45
2021/05/25 08:59:25;;;;;;;0.00;0.00;;;15.20;84.40;;;;;;4145083;28;20148;-46
2021/05/25 09:01:49;;;;;;;0.00;0.00;;;15.10;84.30;;;;;;4158275;28;20054;-46
2021/05/25 09:04:14;;;;;;;0.00;0.00;;;15.10;84.20;;;;;;4158484;28;20054;-46
2021/05/25 09:06:40;;;;;;;0.10;0.10;;;15.10;84.10;;;;;;4159226;28;20140;-50
2021/05/25 09:09:08;;;;;;;0.00;0.00;;;15.10;84.30;;;;;;4144782;28;20553;-48
2021/05/25 09:11:29;;;;;;;0.10;0.10;;;15.10;84.60;;;;;;4159446;28;20061;-50
2021/05/25 09:14:05;;;;;;;;;;;15.10;84.70;;;;;;4162592;28;20411;-46
2021/05/25 09:16:27;;;;;;;0.08;0.08;;;15.10;84.90;;;;;;4159239;28;20032;-46
2021/05/25 09:18:48;;;;;;;;;;;15.00;84.80;;;;;;4159934;28;20507;-46
2021/05/25 09:21:10;;;;;;;;;;;15.00;85.00;;;;;;4168415;28;19921;-48
2021/05/25 09:23:45;;;;;;;0.20;0.20;;;15.00;85.00;;;;;;4166432;28;19921;-52
2021/05/25 09:26:11;;;;;;;1.85;0.85;;;15.00;85.10;;;;;;4159071;28;20041;-50
2021/05/25 09:28:33;;;;;;;0.10;0.10;;;15.00;86.10;;;;;;4159507;28;20534;-48
2021/05/25 09:30:56;;;;;;;0.00;0.00;;;15.00;85.60;;;;;;4168440;28;20104;-47
2021/05/25 09:33:21;;;;;;;0.00;0.00;;;15.00;85.30;;;;;;4159187;28;20045;-46
2021/05/25 09:35:45;;;;;;;0.00;0.00;;;15.00;85.20;;;;;;4159533;28;20057;-48
2021/05/25 09:38:09;;;;;;;0.57;0.57;;;15.00;86.00;;;;;;4171215;28;20631;-47
2021/05/25 09:40:32;;;;;;;0.00;0.00;;;15.00;84.40;;;;;;4173884;28;20968;-47
2021/05/25 09:43:09;;;;;;;0.00;0.00;;;15.00;85.10;;;;;;4168785;28;20045;-50
2021/05/25 09:45:31;;;;;;;0.00;0.00;;;15.00;85.30;;;;;;4161131;28;20310;-53
2021/05/25 09:47:53;;;;;;;0.00;0.00;;;15.20;84.90;;;;;;4173828;28;20522;-47
2021/05/25 09:50:17;;;;;;;0.00;0.00;;;15.80;82.70;;;;;;4165757;28;20132;-49
2021/05/25 09:53:00;;;;;;;0.00;0.00;;;16.30;80.80;;;;;;4171553;28;20068;-48
2021/05/25 09:55:22;;;;;;;0.43;0.43;;;16.70;79.30;;;;;;4173952;28;20053;-49
2021/05/25 09:57:49;;;;;;;9.13;1.27;;;17.00;78.40;;;;;;4171741;28;20156;-49
2021/05/25 10:00:25;;;;;;;0.00;0.00;;;17.50;76.80;;;;;;4172720;28;20567;-48
2021/05/25 10:02:47;;;;;;;0.00;0.00;;;17.80;77.00;;;;;;4173227;28;20518;-47
2021/05/25 10:05:10;;;;;;;0.00;0.00;;;18.10;74.90;;;;;;4173097;28;20045;-47
2021/05/25 10:07:34;;;;;;;0.00;0.00;;;18.30;74.50;;;;;;4175099;28;20407;-48
2021/05/25 10:09:57;;;;;;;0.00;0.00;;;18.60;73.40;;;;;;4174810;28;20052;-47
2021/05/25 10:12:19;;;;;;;0.00;0.00;;;18.70;72.20;;;;;;4175095;28;20503;-47
2021/05/25 10:14:41;;;;;;;0.10;0.10;;;18.80;71.90;;;;;;4173460;28;20071;-48
2021/05/25 10:17:04;;;;;;;0.00;0.00;;;19.00;69.90;;;;;;4172510;28;20052;-47
2021/05/25 10:19:28;;;;;;;0.10;0.10;;;19.00;69.40;;;;;;4174946;28;20076;-49
2021/05/25 10:21:50;;;;;;;0.00;0.00;;;19.00;69.60;;;;;;4175341;28;20135;-47
2021/05/25 10:24:11;;;;;;;0.40;0.38;;;18.90;69.70;;;;;;4158715;28;20239;-47
2021/05/25 10:26:35;;;;;;;0.00;0.00;;;18.80;70.60;;;;;;4159360;28;20045;-46
2021/05/25 10:28:58;;;;;;;0.43;0.43;;;18.60;71.10;;;;;;4159632;28;20045;-50
2021/05/25 10:31:28;;;;;;;0.00;0.00;;;18.50;70.90;;;;;;4159102;28;20408;-50
2021/05/25 10:34:15;;;;;;;0.00;0.00;;;18.40;71.10;;;;;;4173726;28;20896;-46
2021/05/25 10:36:43;;;;;;;0.32;0.32;;;18.30;72.10;;;;;;4174493;28;20055;-49
2021/05/25 10:39:04;;;;;;;0.00;0.00;;;18.10;72.40;;;;;;4141447;28;20053;-46
2021/05/25 10:41:30;;;;;;;1.75;0.73;;;17.90;72.70;;;;;;4156804;28;20451;-48
2021/05/25 10:43:53;;;;;;;0.00;0.00;;;17.80;73.10;;;;;;4163553;28;20139;-48
2021/05/25 10:46:17;;;;;;;0.00;0.00;;;17.70;73.40;;;;;;4165233;28;20042;-49
2021/05/25 10:49:00;;;;;;;0.00;0.00;;;17.60;74.00;;;;;;4143202;28;20048;-51
2021/05/25 10:51:22;;;;;;;0.00;0.00;;;17.60;74.50;;;;;;4141472;28;20444;-50
2021/05/25 10:53:43;;;;;;;0.00;0.00;;;17.70;74.20;;;;;;4142246;28;20133;-51
2021/05/25 10:56:24;;;;;;;0.00;0.00;;;17.80;73.90;;;;;;4159974;28;20400;-49
2021/05/25 10:59:00;;;;;;;0.22;0.22;;;17.80;73.80;;;;;;4157748;28;20054;-47
2021/05/25 11:01:31;;;;;;;0.00;0.00;;;17.90;73.60;;;;;;4158923;28;20092;-47
2021/05/25 11:04:06;;;;;;;0.10;0.10;;;17.90;73.20;;;;;;4171806;28;20135;-47
2021/05/25 11:06:30;;;;;;;0.00;0.00;;;18.00;72.70;;;;;;4162369;28;20749;-50
2021/05/25 11:08:51;;;;;;;0.00;0.00;;;18.10;72.60;;;;;;4173661;28;20133;-50
2021/05/25 11:11:28;;;;;;;0.00;0.00;;;18.10;72.60;;;;;;4174022;28;20057;-45
2021/05/25 11:13:52;;;;;;;0.00;0.00;;;18.10;72.50;;;;;;4174430;28;20049;-46
2021/05/25 11:16:16;;;;;;;0.20;0.20;;;18.30;72.10;;;;;;4174341;28;20450;-45
2021/05/25 11:18:41;;;;;;;0.00;0.00;;;18.30;71.90;;;;;;4174319;28;20507;-46
2021/05/25 11:21:19;;;;;;;0.15;0.15;;;18.30;71.50;;;;;;4174353;28;20045;-46
2021/05/25 11:23:43;;;;;;;0.00;0.00;;;18.40;71.30;;;;;;4170919;28;20128;-49
2021/05/25 11:26:05;;;;;;;0.00;0.00;;;18.30;71.60;;;;;;4171708;28;20486;-48
2021/05/25 11:28:26;;;;;;;0.00;0.00;;;18.20;71.90;;;;;;4177322;28;20483;-49
2021/05/25 11:30:48;;;;;;;0.00;0.00;;;18.10;72.00;;;;;;4175279;28;20049;-46
2021/05/25 11:33:10;;;;;;;0.32;0.32;;;18.10;72.30;;;;;;4173327;28;20048;-48
2021/05/25 11:35:33;;;;;;;0.00;0.00;;;18.10;72.40;;;;;;4170107;28;20048;-46
2021/05/25 11:37:59;;;;;;;0.20;0.20;;;18.20;72.40;;;;;;4170237;28;20140;-47
2021/05/25 11:40:22;;;;;;;0.00;0.00;;;18.30;72.50;;;;;;4158093;28;20049;-48
2021/05/25 11:42:47;;;;;;;0.00;0.00;;;18.30;73.20;;;;;;4156024;28;20130;-46
2021/05/25 11:45:16;;;;;;;0.00;0.00;;;18.30;72.40;;;;;;4129659;28;20119;-46
2021/05/25 11:47:45;;;;;;;0.00;0.00;;;18.30;72.40;;;;;;4114721;28;20576;-48
2021/05/25 11:50:13;;;;;;;0.00;0.00;;;18.30;72.70;;;;;;4157018;28;20124;-48
2021/05/25 11:52:56;;;;;;;0.00;0.00;;;18.20;72.90;;;;;;4132468;28;20087;-46
2021/05/25 11:55:29;;;;;;;0.00;0.00;;;18.20;73.60;;;;;;4141718;28;20048;-50
2021/05/25 11:58:01;;;;;;;0.00;0.00;;;18.40;73.60;;;;;;4140184;28;20053;-47
2021/05/25 12:00:37;;;;;;;0.00;0.00;;;18.40;73.90;;;;;;4113644;28;20136;-46
2021/05/25 12:03:12;;;;;;;0.10;0.10;;;18.50;73.50;;;;;;4139418;28;20060;-45
2021/05/25 12:05:42;;;;;;;1.13;0.52;;;18.60;73.10;;;;;;4153172;28;20446;-47
2021/05/25 12:08:08;;;;;;;0.10;0.10;;;18.70;73.20;;;;;;4163737;28;20057;-46
2021/05/25 12:10:31;;;;;;;0.00;0.00;;;18.60;73.10;;;;;;4165125;28;20414;-47
2021/05/25 12:13:01;;;;;;;0.00;0.00;;;18.60;74.00;;;;;;4164355;28;20049;-46
2021/05/25 12:15:27;;;;;;;0.00;0.00;;;18.60;73.00;;;;;;4167192;28;20049;-46
2021/05/25 12:17:51;;;;;;;0.00;0.00;;;18.60;73.20;;;;;;4167455;28;20051;-46
2021/05/25 12:20:17;;;;;;;0.00;0.00;;;18.60;73.30;;;;;;4155666;28;20045;-46
2021/05/25 12:22:40;;;;;;;0.30;0.30;;;18.70;73.10;;;;;;4155621;28;20045;-48
2021/05/25 12:25:26;;;;;;;0.00;0.00;;;18.70;73.00;;;;;;4159383;28;20104;-46
2021/05/25 12:27:51;;;;;;;0.52;0.52;;;18.80;73.10;;;;;;4157572;28;20135;-49
2021/05/25 12:30:15;;;;;;;0.80;0.80;;;18.80;73.30;;;;;;4174949;28;20380;-47
2021/05/25 12:32:37;;;;;;;0.10;0.10;;;18.80;73.40;;;;;;4176329;28;20056;-45